• Join FlightAware (Why Join?)
  • Login
  • US Flag 
11:37AM EST


 

Airport Tracker/Info


-or-


 

Live Flight TrackerFlight Track Log ✈ GPD590 ✈ 11-Oct-2013 ✈ KTEB - KACK

Flight Track Log - Related Links

Times and Time Zones

All times are in EDT time to prevent confusion due to time zone crossing. See the GPD590 flight status page for this flight to view local times or setup timezone preferences in your user account.

Time Position Orientation Groundspeed Altitude Reporting Facility
EDT Latitude Longitude Course Direction KTS MPH feet Rate Location/Type
08:25PM 40.9000 -74.0667 62° Northeast 175 201 2,300  Level New York TRACON
08:26PM 40.9333 -74.1167 311° West 183 211 3,700 1,320 Climbing New York TRACON
08:27PM 40.9667 -74.1667 311° West 185 213 5,000 1,200 Climbing New York TRACON
08:28PM 41.0000 -74.1667 360° North 172 198 6,100 1,140 Climbing New York TRACON
08:29PM 41.0500 -74.1500 14° North 177 204 7,300 1,200 Climbing New York TRACON
08:30PM 41.1000 -74.1500 360° North 184 212 8,500 1,080 Climbing New York TRACON
08:31PM 41.0163 -73.6093 62° Northeast  Level FlightAware Approximate
08:31PM 41.1333 -74.1000 48° Northeast 183 211 9,500  Level New York TRACON
08:32PM 41.1500 -74.0333 72° East 180 207 10,700 1,200 Climbing New York TRACON
08:33PM 41.1667 -73.9667 72° East 188 216 11,900 600 Climbing New York TRACON
08:34PM 41.1833 -73.9000 72° East 219 252 12,000  Climbing New York TRACON
08:35PM 41.2167 -73.8167 62° Northeast 244 281 12,000  Level New York TRACON
08:36PM 41.2333 -73.7167 77° East 248 285 12,000 600 Level New York TRACON
08:39PM 41.2467 -73.5444 84° East 225 259 14,000 1,020 Climbing Boston Center
08:40PM 41.2517 -73.4672 85° East 209 241 15,300 960 Climbing Boston Center
08:41PM 41.2564 -73.3928 85° East 209 241 15,900 300 Climbing Boston Center
08:42PM 41.2633 -73.3128 83° East 222 255 15,900  Level Boston Center
08:43PM 41.2681 -73.2189 86° East 236 272 15,900  Level Boston Center
08:44PM 41.2728 -73.1278 86° East 242 278 16,000 360 Climbing Boston Center
08:45PM 41.2797 -73.0256 85° East 247 284 16,700 480 Climbing Boston Center
08:46PM 41.2822 -72.9511 87° East 235 270 17,000 120 Climbing Boston Center
08:47PM 41.2889 -72.8489 85° East 235 270 17,000  Level Boston Center
08:48PM 41.2933 -72.7661 86° East 240 276 17,000  Level Boston Center
08:49PM 41.2978 -72.6611 87° East 246 283 17,000  Level Boston Center
08:50PM 41.3042 -72.5728 84° East 258 297 17,000  Level Boston Center
08:51PM 41.3106 -72.4678 85° East 258 297 17,000  Level Boston Center
08:52PM 41.3125 -72.3819 88° East 252 290 17,000  Level Boston Center
08:53PM 41.3000 -72.2797 99° East 258 297 17,000  Level Boston Center
08:54PM 41.2914 -72.1942 98° East 258 297 17,000  Level Boston Center
08:55PM 41.2767 -72.0922 101° East 258 297 17,000 -60 Level Boston Center
08:56PM 41.2658 -72.0011 99° East 263 303 16,900 -60 Descending Boston Center
08:57PM 41.2550 -71.9017 98° East 255 293 16,900  Level Boston Center
08:58PM 41.2442 -71.8189 100° East 249 287 16,900  Level Boston Center
08:59PM 41.2289 -71.7142 101° East 256 295 16,900  Level Boston Center
09:00PM 41.2178 -71.6289 100° East 256 295 16,900  Level Boston Center
09:01PM 41.2047 -71.5269 100° East 256 295 17,000 -480 Climbing Boston Center
09:02PM 41.1933 -71.4278 99° East 261 300 16,000 -960 Descending Boston Center
09:03PM 41.1800 -71.3258 100° East 277 319 15,100 -1,020 Descending Boston Center
09:04PM 41.1664 -71.2214 100° East 277 319 14,000 -1,020 Descending Boston Center
09:05PM 41.1672 -71.1194 89° East 277 319 13,100 -1,020 Descending Boston Center
09:06PM 41.1764 -71.0200 83° East 271 312 12,100 -900 Descending Boston Center
09:07PM 41.1856 -70.9231 83° East 271 312 11,300 -840 Descending Boston Center
09:08PM 41.1947 -70.8319 82° East 261 300 10,500 -900 Descending Boston Center
09:09PM 41.2039 -70.7378 83° East 254 292 9,500 -1,080 Descending Boston Center
09:10PM 41.2106 -70.6411 85° East 254 292 8,400 -1,200 Descending Boston Center
09:11PM 41.2069 -70.5500 93° East 254 292 7,200 -1,200 Descending Boston Center
09:12PM 41.2033 -70.4619 93° East 254 292 6,100 -1,140 Descending Boston Center
09:13PM 41.2000 -70.3792 93° East 242 278 5,000 -1,200 Descending Boston Center
09:14PM 41.1983 -70.2994 92° East 229 264 3,700 -1,320 Descending Boston Center
09:15PM 41.1953 -70.2386 94° East 223 257 2,500 3,600 Descending Boston Center
09:16PM 41.1869 -70.1425 97° East 223 257 11,000 8,460 Climbing Boston Center
09:18PM 41.2500 -70.0500 77° East  Level FlightAware Approximate
09:25PM 41.2530 -70.0599 77° East  Level Estimated
09:26PM 41.2530 -70.0599 77° East  Level Estimated
09:27PM 41.2530 -70.0599 77° East  Level Estimated
09:28PM 41.2530 -70.0599 77° East  Level Estimated
09:29PM 41.2530 -70.0599 77° East  Level Estimated
09:30PM 41.2530 -70.0599 77° East  Level Estimated
09:31PM 41.2530 -70.0599 77° East  Level Estimated
09:32PM 41.2530 -70.0599 77° East  Level Estimated